This is the latest recevied weather packets stored in our database for station/object IZ2XCK-13. If no packets are shown the sender has not sent any weather packets the latest 10 day(s).
| Time | Temp. | Humidity | Pressure | Rain* | Wind** | Luminosity | Snow |
|---|---|---|---|---|---|---|---|
| 1777539902 | 15.56° C | 70% | 1024.8 hPa | - | - | - | - |
| 1777538702 | 15° C | 74% | 1024.7 hPa | - | - | - | - |
| 1777537502 | 15° C | 76% | 1024.5 hPa | - | - | - | - |
| 1777536301 | 14.44° C | 81% | 1024.2 hPa | - | - | - | - |
| 1777535101 | 14.44° C | 76% | 1024.2 hPa | - | - | - | - |
| 1777533901 | 13.33° C | 83% | 1024.2 hPa | - | - | - | - |
| 1777532700 | 12.22° C | 90% | 1024.1 hPa | - | - | - | - |
| 1777531500 | 12.78° C | 85% | 1023.9 hPa | - | - | - | - |
| 1777530300 | 11.67° C | 96% | 1023.8 hPa | - | - | - | - |
| 1777529099 | 11.67° C | 99% | 1023.8 hPa | - | - | - | - |
| 1777527899 | 11.11° C | 98% | 1023.7 hPa | - | - | - | - |
| 1777526699 | 11.67° C | 92% | 1023.5 hPa | - | - | - | - |
| 1777525498 | 11.11° C | 97% | 1023.3 hPa | - | - | - | - |
| 1777524298 | 12.22° C | 88% | 1023.2 hPa | - | - | - | - |
| 1777523098 | 11.67° C | 90% | 1023.1 hPa | - | - | - | - |
| 1777521897 | 11.11° C | 91% | 1022.8 hPa | - | - | - | - |
| 1777520697 | 11.11° C | 95% | 1022.8 hPa | - | - | - | - |
| 1777519497 | 12.22° C | 84% | 1022.7 hPa | - | - | - | - |
| 1777518297 | 11.67° C | 87% | 1022.8 hPa | - | - | - | - |
| 1777517096 | 12.22° C | 82% | 1022.8 hPa | - | - | - | - |
| 1777515896 | 11.11° C | 94% | 1022.8 hPa | - | - | - | - |
| 1777514696 | 12.22° C | 80% | 1022.7 hPa | - | - | - | - |
| 1777513495 | 12.22° C | 81% | 1022.6 hPa | - | - | - | - |
| 1777512295 | 12.78° C | 80% | 1022.3 hPa | - | - | - | - |
| 1777511095 | 12.78° C | 81% | 1022.2 hPa | - | - | - | - |
* Rain since midnight (hover to see other rain measurements)
** Current wind speed in m/s (hover to see current wind gust speed)